createdAt,value
2023-04-08T00:00:45.991Z,94251.00
2023-04-08T00:03:13.024Z,94245.00
2023-04-08T00:05:39.992Z,94266.00
2023-04-08T00:08:07.108Z,94258.00
2023-04-08T00:10:36.637Z,94256.00
2023-04-08T00:13:03.635Z,94261.00
2023-04-08T00:15:30.692Z,94270.00
2023-04-08T00:17:57.704Z,94257.00
2023-04-08T00:20:25.435Z,94265.00
2023-04-08T00:22:52.557Z,94266.00
2023-04-08T00:25:25.576Z,94254.00
2023-04-08T00:27:55.222Z,94264.00
2023-04-08T00:30:24.406Z,94261.00
2023-04-08T00:32:51.320Z,94264.00
2023-04-08T00:35:18.344Z,94262.00
2023-04-08T00:37:45.873Z,94261.00
2023-04-08T00:40:12.786Z,94268.00
2023-04-08T00:42:42.214Z,94268.00
2023-04-08T00:45:12.204Z,94266.00
2023-04-08T00:47:39.848Z,94260.00
2023-04-08T00:50:10.558Z,94262.00
2023-04-08T00:52:37.477Z,94270.00
2023-04-08T00:55:05.259Z,94263.00
2023-04-08T00:57:32.464Z,94264.00
2023-04-08T01:00:00.009Z,94260.00
2023-04-08T01:02:54.317Z,94263.00
2023-04-08T01:05:33.211Z,94267.00
2023-04-08T01:08:03.313Z,94267.00
2023-04-08T01:10:34.461Z,94248.00
2023-04-08T01:13:12.649Z,94265.00
2023-04-08T01:15:41.365Z,94267.00
2023-04-08T01:18:12.512Z,94258.00
2023-04-08T01:20:46.684Z,94266.00
2023-04-08T01:23:43.357Z,94256.00
2023-04-08T01:26:13.658Z,94261.00
2023-04-08T01:28:44.357Z,94266.00
2023-04-08T01:31:11.745Z,94260.00
2023-04-08T01:33:38.960Z,94255.00
2023-04-08T01:36:09.167Z,94249.00
2023-04-08T01:38:39.335Z,94253.00
2023-04-08T01:41:09.127Z,94246.00
2023-04-08T01:43:36.364Z,94249.00
2023-04-08T01:46:05.427Z,94259.00
2023-04-08T01:48:35.539Z,94253.00
2023-04-08T01:51:04.505Z,94247.00
2023-04-08T01:53:32.196Z,94247.00
2023-04-08T01:56:07.626Z,94256.00
2023-04-08T01:58:46.744Z,94256.00
2023-04-08T02:01:20.575Z,94248.00
2023-04-08T02:03:49.309Z,94243.00
2023-04-08T02:06:16.290Z,94257.00
2023-04-08T02:08:43.204Z,94246.00
2023-04-08T02:11:10.348Z,94247.00
2023-04-08T02:13:39.882Z,94250.00
2023-04-08T02:16:56.875Z,94253.00
2023-04-08T02:19:31.103Z,94260.00
2023-04-08T02:22:12.854Z,94252.00
2023-04-08T02:24:43.069Z,94252.00
2023-04-08T02:27:10.978Z,94256.00
2023-04-08T02:29:40.486Z,94238.00
2023-04-08T02:32:11.912Z,94260.00
2023-04-08T02:34:41.942Z,94253.00
2023-04-08T02:37:10.161Z,94261.00
2023-04-08T02:39:41.606Z,94263.00
2023-04-08T02:42:09.485Z,94264.00
2023-04-08T02:44:38.247Z,94265.00
2023-04-08T02:47:05.103Z,94250.00
2023-04-08T02:49:32.045Z,94262.00
2023-04-08T02:51:58.952Z,94266.00
2023-04-08T02:54:25.846Z,94266.00
2023-04-08T02:56:52.729Z,94269.00
2023-04-08T02:59:19.629Z,94261.00
2023-04-08T03:01:49.139Z,94264.00
2023-04-08T03:04:16.287Z,94266.00
2023-04-08T03:06:45.396Z,94269.00
2023-04-08T03:09:12.276Z,94267.00
2023-04-08T03:11:39.168Z,94257.00
2023-04-08T03:14:06.215Z,94262.00
2023-04-08T03:16:35.476Z,94259.00
2023-04-08T03:19:04.431Z,94264.00
2023-04-08T03:21:33.375Z,94267.00
2023-04-08T03:24:04.969Z,94256.00
2023-04-08T03:26:31.764Z,94250.00
2023-04-08T03:28:58.711Z,94257.00
2023-04-08T03:31:30.221Z,94262.00
2023-04-08T03:33:57.214Z,94256.00
2023-04-08T03:36:24.149Z,94258.00
2023-04-08T03:38:51.239Z,94266.00
2023-04-08T03:41:21.195Z,94258.00
2023-04-08T03:43:48.054Z,94265.00
2023-04-08T03:46:15.023Z,94261.00
2023-04-08T03:48:44.553Z,94265.00
2023-04-08T03:51:16.186Z,94262.00
2023-04-08T03:53:42.967Z,94266.00
2023-04-08T03:56:12.102Z,94263.00
2023-04-08T03:58:41.134Z,94260.00
2023-04-08T04:01:10.587Z,94270.00
2023-04-08T04:03:37.637Z,94276.00
2023-04-08T04:06:07.131Z,94275.00
2023-04-08T04:08:34.099Z,94268.00
2023-04-08T04:11:01.027Z,94277.00
2023-04-08T04:13:30.455Z,94280.00
2023-04-08T04:16:01.981Z,94283.00
2023-04-08T04:18:33.650Z,94281.00
2023-04-08T04:21:07.442Z,94291.00
2023-04-08T04:23:38.897Z,94279.00
2023-04-08T04:26:11.912Z,94288.00
2023-04-08T04:28:39.197Z,94277.00
2023-04-08T04:31:06.200Z,94282.00
2023-04-08T04:33:33.171Z,94292.00
2023-04-08T04:36:00.152Z,94295.00
2023-04-08T04:38:27.049Z,94296.00
2023-04-08T04:40:54.076Z,94296.00
2023-04-08T04:43:21.015Z,94295.00
2023-04-08T04:45:50.310Z,94298.00
2023-04-08T04:48:17.184Z,94288.00
2023-04-08T04:50:44.043Z,94300.00
2023-04-08T04:53:13.111Z,94297.00
2023-04-08T04:55:40.224Z,94295.00
2023-04-08T04:58:07.120Z,94298.00
2023-04-08T05:00:36.506Z,94296.00
2023-04-08T05:03:05.880Z,94298.00
2023-04-08T05:05:32.750Z,94301.00
2023-04-08T05:08:01.965Z,94289.00
2023-04-08T05:10:28.898Z,94297.00
2023-04-08T05:12:56.191Z,94303.00
2023-04-08T05:15:23.175Z,94301.00
2023-04-08T05:17:50.055Z,94297.00
2023-04-08T05:20:17.746Z,94304.00
2023-04-08T05:22:45.360Z,94311.00
2023-04-08T05:25:12.421Z,94311.00
2023-04-08T05:27:41.765Z,94313.00
2023-04-08T05:30:09.812Z,94310.00
2023-04-08T05:32:38.824Z,94320.00
2023-04-08T05:35:06.454Z,94316.00
2023-04-08T05:37:33.324Z,94311.00
2023-04-08T05:40:00.460Z,94315.00
2023-04-08T05:42:32.124Z,94319.00
2023-04-08T05:44:59.054Z,94322.00
2023-04-08T05:47:28.263Z,94316.00
2023-04-08T05:49:57.572Z,94329.00
2023-04-08T05:52:26.958Z,94322.00
2023-04-08T05:54:54.077Z,94330.00
2023-04-08T05:57:21.018Z,94325.00
2023-04-08T05:59:50.251Z,94331.00
2023-04-08T06:02:19.458Z,94336.00
2023-04-08T06:04:46.748Z,94332.00
2023-04-08T06:07:13.802Z,94330.00
2023-04-08T06:09:40.675Z,94334.00
2023-04-08T06:12:07.621Z,94338.00
2023-04-08T06:14:37.079Z,94341.00
2023-04-08T06:17:09.018Z,94338.00
2023-04-08T06:19:35.933Z,94343.00
2023-04-08T06:22:07.347Z,94341.00
2023-04-08T06:24:36.766Z,94343.00
2023-04-08T06:27:03.700Z,94345.00
2023-04-08T06:29:31.378Z,94339.00
2023-04-08T06:32:03.500Z,94345.00
2023-04-08T06:34:30.678Z,94346.00
2023-04-08T06:37:02.194Z,94343.00
2023-04-08T06:39:29.176Z,94349.00
2023-04-08T06:41:58.257Z,94349.00
2023-04-08T06:44:25.344Z,94348.00
2023-04-08T06:46:52.276Z,94351.00
2023-04-08T06:49:19.177Z,94349.00
2023-04-08T06:51:48.868Z,94350.00
2023-04-08T06:54:15.841Z,94347.00
2023-04-08T06:56:44.821Z,94350.00
2023-04-08T06:59:14.252Z,94350.00
2023-04-08T07:01:42.117Z,94351.00
2023-04-08T07:04:09.028Z,94350.00
2023-04-08T07:06:35.939Z,94349.00
2023-04-08T07:09:02.883Z,94349.00
2023-04-08T07:11:29.935Z,94349.00
2023-04-08T07:13:57.139Z,94348.00
2023-04-08T07:16:24.077Z,94345.00
2023-04-08T07:18:52.032Z,94356.00
2023-04-08T07:21:19.397Z,94351.00
2023-04-08T07:23:46.262Z,94352.00
2023-04-08T07:26:13.507Z,94353.00
2023-04-08T07:28:40.819Z,94361.00
2023-04-08T07:31:16.051Z,94361.00
2023-04-08T07:33:44.137Z,94359.00
2023-04-08T07:36:13.168Z,94364.00
2023-04-08T07:38:40.918Z,94360.00
2023-04-08T07:41:11.089Z,94357.00
2023-04-08T07:43:38.249Z,94358.00
2023-04-08T07:46:09.045Z,94368.00
2023-04-08T07:48:38.776Z,94362.00
2023-04-08T07:51:11.482Z,94366.00
2023-04-08T07:53:40.358Z,94370.00
2023-04-08T07:56:15.559Z,94371.00
2023-04-08T07:58:42.924Z,94376.00
2023-04-08T08:01:36.660Z,94376.00
2023-04-08T08:04:04.212Z,94368.00
2023-04-08T08:06:32.417Z,94380.00
2023-04-08T08:09:00.585Z,94383.00
2023-04-08T08:11:29.812Z,94385.00
2023-04-08T08:13:57.087Z,94376.00
2023-04-08T08:16:27.324Z,94383.00
2023-04-08T08:18:56.898Z,94389.00
2023-04-08T08:21:29.404Z,94384.00
2023-04-08T08:23:56.892Z,94383.00
2023-04-08T08:26:23.726Z,94390.00
2023-04-08T08:28:52.945Z,94395.00
2023-04-08T08:31:19.878Z,94394.00
2023-04-08T08:33:47.344Z,94397.00
2023-04-08T08:36:14.220Z,94390.00
2023-04-08T08:38:43.478Z,94399.00
2023-04-08T08:41:10.358Z,94404.00
2023-04-08T08:43:40.357Z,94410.00
2023-04-08T08:46:15.347Z,94419.00
2023-04-08T08:48:42.292Z,94414.00
2023-04-08T08:51:10.999Z,94411.00
2023-04-08T08:53:45.049Z,94420.00
2023-04-08T08:56:18.480Z,94424.00
2023-04-08T08:58:47.565Z,94415.00
2023-04-08T09:01:34.003Z,94424.00
2023-04-08T09:04:16.747Z,94419.00
2023-04-08T09:06:46.880Z,94419.00
2023-04-08T09:09:16.499Z,94425.00
2023-04-08T09:11:47.629Z,94422.00
2023-04-08T09:14:25.724Z,94421.00
2023-04-08T09:16:53.393Z,94413.00
2023-04-08T09:19:23.060Z,94428.00
2023-04-08T09:22:11.650Z,94424.00
2023-04-08T09:24:38.727Z,94426.00
2023-04-08T09:27:08.240Z,94434.00
2023-04-08T09:29:38.329Z,94423.00
2023-04-08T09:32:06.787Z,94435.00
2023-04-08T09:34:34.482Z,94434.00
2023-04-08T09:37:01.855Z,94423.00
2023-04-08T09:39:28.826Z,94425.00
2023-04-08T09:42:08.410Z,94426.00
2023-04-08T09:44:37.436Z,94427.00
2023-04-08T09:47:19.716Z,94429.00
2023-04-08T09:49:58.644Z,94424.00
2023-04-08T09:52:36.426Z,94432.00
2023-04-08T09:55:05.831Z,94432.00
2023-04-08T09:57:50.803Z,94440.00
2023-04-08T10:00:19.297Z,94446.00
2023-04-08T10:03:01.847Z,94437.00
2023-04-08T10:05:30.533Z,94442.00
2023-04-08T10:08:00.516Z,94451.00
2023-04-08T10:10:27.798Z,94448.00
2023-04-08T10:12:55.322Z,94451.00
2023-04-08T10:15:29.339Z,94446.00
2023-04-08T10:18:20.694Z,94445.00
2023-04-08T10:20:49.346Z,94442.00
2023-04-08T10:23:22.009Z,94445.00
2023-04-08T10:25:54.467Z,94440.00
2023-04-08T10:28:22.613Z,94439.00
2023-04-08T10:30:49.894Z,94433.00
2023-04-08T10:33:31.255Z,94436.00
2023-04-08T10:36:12.605Z,94436.00
2023-04-08T10:38:43.406Z,94432.00
2023-04-08T10:41:21.631Z,94436.00
2023-04-08T10:43:48.901Z,94434.00
2023-04-08T10:46:17.242Z,94441.00
2023-04-08T10:48:46.546Z,94439.00
2023-04-08T10:51:13.618Z,94440.00
2023-04-08T10:53:40.597Z,94441.00
2023-04-08T10:56:16.633Z,94439.00
2023-04-08T10:58:56.362Z,94436.00
2023-04-08T11:01:23.354Z,94444.00
2023-04-08T11:03:53.250Z,94441.00
2023-04-08T11:06:20.615Z,94447.00
2023-04-08T11:08:47.735Z,94429.00
2023-04-08T11:11:15.495Z,94441.00
2023-04-08T11:13:53.301Z,94440.00
2023-04-08T11:16:22.769Z,94437.00
2023-04-08T11:18:51.509Z,94438.00
2023-04-08T11:21:18.605Z,94442.00
2023-04-08T11:23:46.353Z,94435.00
2023-04-08T11:26:15.494Z,94444.00
2023-04-08T11:28:43.331Z,94440.00
2023-04-08T11:31:13.250Z,94438.00
2023-04-08T11:33:49.275Z,94443.00
2023-04-08T11:36:18.832Z,94429.00
2023-04-08T11:38:47.832Z,94436.00
2023-04-08T11:41:22.376Z,94438.00
2023-04-08T11:43:59.049Z,94428.00
2023-04-08T11:46:26.419Z,94432.00
2023-04-08T11:49:08.085Z,94435.00
2023-04-08T11:51:54.588Z,94427.00
2023-04-08T11:54:30.169Z,94432.00
2023-04-08T11:56:58.358Z,94425.00
2023-04-08T11:59:27.431Z,94421.00
2023-04-08T12:01:58.925Z,94436.00
2023-04-08T12:04:26.295Z,94422.00
2023-04-08T12:06:53.361Z,94421.00
2023-04-08T12:09:22.447Z,94420.00
2023-04-08T12:11:49.372Z,94421.00
2023-04-08T12:14:16.415Z,94421.00
2023-04-08T12:16:48.341Z,94421.00
2023-04-08T12:19:17.726Z,94420.00
2023-04-08T12:21:48.041Z,94418.00
2023-04-08T12:24:14.906Z,94420.00
2023-04-08T12:26:44.246Z,94433.00
2023-04-08T12:29:12.165Z,94436.00
2023-04-08T12:31:39.245Z,94437.00
2023-04-08T12:34:06.965Z,94429.00
2023-04-08T12:36:33.916Z,94434.00
2023-04-08T12:39:01.119Z,94437.00
2023-04-08T12:41:27.959Z,94438.00
2023-04-08T12:43:54.861Z,94428.00
2023-04-08T12:46:21.768Z,94429.00
2023-04-08T12:48:48.952Z,94433.00
2023-04-08T12:51:18.399Z,94428.00
2023-04-08T12:53:45.257Z,94432.00
2023-04-08T12:56:12.335Z,94432.00
2023-04-08T12:58:41.473Z,94395.00
2023-04-08T13:01:12.502Z,94432.00
2023-04-08T13:03:39.652Z,94423.00
2023-04-08T13:06:06.647Z,94424.00
2023-04-08T13:08:38.583Z,94424.00
2023-04-08T13:11:05.617Z,94411.00
2023-04-08T13:13:34.838Z,94418.00
2023-04-08T13:16:02.463Z,94420.00
2023-04-08T13:18:29.489Z,94416.00
2023-04-08T13:20:58.870Z,94417.00
2023-04-08T13:23:25.995Z,94421.00
2023-04-08T13:25:52.823Z,94420.00
2023-04-08T13:28:19.763Z,94418.00
2023-04-08T13:30:49.170Z,94414.00
2023-04-08T13:33:16.232Z,94417.00
2023-04-08T13:35:46.143Z,94414.00
2023-04-08T13:38:17.992Z,94400.00
2023-04-08T13:40:45.994Z,94409.00
2023-04-08T13:43:14.610Z,94418.00
2023-04-08T13:45:41.999Z,94414.00
2023-04-08T13:48:11.031Z,94425.00
2023-04-08T13:50:41.767Z,94410.00
2023-04-08T13:53:10.934Z,94417.00
2023-04-08T13:55:40.893Z,94409.00
2023-04-08T13:58:17.272Z,94407.00
2023-04-08T14:00:56.045Z,94414.00
2023-04-08T14:03:23.018Z,94419.00
2023-04-08T14:05:51.043Z,94415.00
2023-04-08T14:08:26.431Z,94418.00
2023-04-08T14:10:56.194Z,94416.00
2023-04-08T14:13:23.480Z,94418.00
2023-04-08T14:15:50.478Z,94415.00
2023-04-08T14:18:18.030Z,94411.00
2023-04-08T14:20:45.118Z,94416.00
2023-04-08T14:23:13.529Z,94407.00
2023-04-08T14:25:43.579Z,94410.00
2023-04-08T14:28:10.513Z,94415.00
2023-04-08T14:30:37.869Z,94404.00
2023-04-08T14:33:08.063Z,94400.00
2023-04-08T14:35:37.855Z,94402.00
2023-04-08T14:38:04.805Z,94410.00
2023-04-08T14:40:31.684Z,94410.00
2023-04-08T14:43:01.464Z,94414.00
2023-04-08T14:45:29.522Z,94420.00
2023-04-08T14:47:56.872Z,94413.00
2023-04-08T14:50:23.945Z,94418.00
2023-04-08T14:52:53.407Z,94409.00
2023-04-08T14:55:22.716Z,94414.00
2023-04-08T14:57:51.905Z,94416.00
2023-04-08T15:00:18.762Z,94422.00
2023-04-08T15:02:45.724Z,94421.00
2023-04-08T15:05:12.665Z,94415.00
2023-04-08T15:07:40.195Z,94417.00
2023-04-08T15:10:10.480Z,94415.00
2023-04-08T15:12:37.292Z,94415.00
2023-04-08T15:15:04.914Z,94413.00
2023-04-08T15:17:34.041Z,94406.00
2023-04-08T15:20:00.987Z,94417.00
2023-04-08T15:22:27.827Z,94415.00
2023-04-08T15:24:54.823Z,94413.00
2023-04-08T15:27:21.633Z,94419.00
2023-04-08T15:29:50.610Z,94426.00
2023-04-08T15:32:17.740Z,94423.00
2023-04-08T15:34:47.512Z,94427.00
2023-04-08T15:37:14.703Z,94428.00
2023-04-08T15:39:41.740Z,94429.00
2023-04-08T15:42:12.847Z,94438.00
2023-04-08T15:44:39.781Z,94436.00
2023-04-08T15:47:11.420Z,94439.00
2023-04-08T15:49:38.826Z,94444.00
2023-04-08T15:52:06.484Z,94442.00
2023-04-08T15:54:36.677Z,94439.00
2023-04-08T15:57:05.846Z,94445.00
2023-04-08T15:59:35.743Z,94448.00
2023-04-08T16:02:02.623Z,94446.00
2023-04-08T16:04:29.764Z,94446.00
2023-04-08T16:06:56.868Z,94447.00
2023-04-08T16:09:26.768Z,94456.00
2023-04-08T16:11:53.924Z,94452.00
2023-04-08T16:14:20.836Z,94449.00
2023-04-08T16:16:51.226Z,94457.00
2023-04-08T16:19:22.149Z,94470.00
2023-04-08T16:21:49.074Z,94471.00
2023-04-08T16:24:16.521Z,94469.00
2023-04-08T16:26:43.741Z,94471.00
2023-04-08T16:29:10.784Z,94475.00
2023-04-08T16:31:37.702Z,94477.00
2023-04-08T16:34:08.256Z,94480.00
2023-04-08T16:36:39.858Z,94481.00
2023-04-08T16:39:06.629Z,94479.00
2023-04-08T16:41:33.606Z,94478.00
2023-04-08T16:44:00.495Z,94476.00
2023-04-08T16:46:28.139Z,94481.00
2023-04-08T16:48:57.362Z,94479.00
2023-04-08T16:51:24.225Z,94488.00
2023-04-08T16:53:54.684Z,94486.00
2023-04-08T16:56:22.672Z,94486.00
2023-04-08T16:58:52.420Z,94488.00
2023-04-08T17:01:19.811Z,94489.00
2023-04-08T17:03:50.217Z,94479.00
2023-04-08T17:06:17.751Z,94497.00
2023-04-08T17:08:47.176Z,94487.00
2023-04-08T17:11:21.679Z,94495.00
2023-04-08T17:13:51.320Z,94489.00
2023-04-08T17:16:21.144Z,94498.00
2023-04-08T17:18:50.454Z,94490.00
2023-04-08T17:21:21.227Z,94500.00
2023-04-08T17:23:48.245Z,94492.00
2023-04-08T17:26:15.459Z,94496.00
2023-04-08T17:28:43.129Z,94501.00
2023-04-08T17:31:13.012Z,94507.00
2023-04-08T17:33:39.967Z,94511.00
2023-04-08T17:36:09.485Z,94517.00
2023-04-08T17:38:39.809Z,94510.00
2023-04-08T17:41:10.082Z,94512.00
2023-04-08T17:43:37.050Z,94517.00
2023-04-08T17:46:04.281Z,94523.00
2023-04-08T17:48:31.228Z,94517.00
2023-04-08T17:51:03.384Z,94523.00
2023-04-08T17:53:36.088Z,94536.00
2023-04-08T17:56:03.034Z,94536.00
2023-04-08T17:58:32.220Z,94541.00
2023-04-08T18:00:59.257Z,94532.00
2023-04-08T18:03:27.095Z,94531.00
2023-04-08T18:05:56.464Z,94536.00
2023-04-08T18:08:25.586Z,94539.00
2023-04-08T18:10:54.872Z,94544.00
2023-04-08T18:13:22.911Z,94549.00
2023-04-08T18:15:49.778Z,94552.00
2023-04-08T18:18:19.534Z,94550.00
2023-04-08T18:20:48.550Z,94560.00
2023-04-08T18:23:17.702Z,94559.00
2023-04-08T18:25:47.884Z,94554.00
2023-04-08T18:28:14.916Z,94564.00
2023-04-08T18:30:43.279Z,94559.00
2023-04-08T18:33:10.452Z,94564.00
2023-04-08T18:35:37.460Z,94564.00
2023-04-08T18:38:04.358Z,94563.00
2023-04-08T18:40:31.326Z,94574.00
2023-04-08T18:43:02.189Z,94576.00
2023-04-08T18:45:31.608Z,94578.00
2023-04-08T18:47:58.416Z,94575.00
2023-04-08T18:50:28.403Z,94580.00
2023-04-08T18:52:57.495Z,94579.00
2023-04-08T18:55:24.460Z,94588.00
2023-04-08T18:57:51.641Z,94591.00
2023-04-08T19:00:20.822Z,94585.00
2023-04-08T19:02:47.902Z,94590.00
2023-04-08T19:05:17.794Z,94602.00
2023-04-08T19:07:46.961Z,94598.00
2023-04-08T19:10:14.098Z,94602.00
2023-04-08T19:12:43.750Z,94602.00
2023-04-08T19:15:13.653Z,94607.00
2023-04-08T19:17:41.058Z,94601.00
2023-04-08T19:20:08.770Z,94603.00
2023-04-08T19:22:35.642Z,94609.00
2023-04-08T19:25:02.528Z,94609.00
2023-04-08T19:27:29.684Z,94614.00
2023-04-08T19:29:56.840Z,94616.00
2023-04-08T19:32:23.906Z,94611.00
2023-04-08T19:34:50.931Z,94613.00
2023-04-08T19:37:20.582Z,94617.00
2023-04-08T19:39:47.446Z,94615.00
2023-04-08T19:42:14.322Z,94618.00
2023-04-08T19:44:43.703Z,94626.00
2023-04-08T19:47:10.904Z,94627.00
2023-04-08T19:49:40.373Z,94628.00
2023-04-08T19:52:07.564Z,94636.00
2023-04-08T19:54:34.414Z,94632.00
2023-04-08T19:57:01.261Z,94635.00
2023-04-08T19:59:28.371Z,94622.00
2023-04-08T20:01:55.677Z,94643.00
2023-04-08T20:04:23.064Z,94647.00
2023-04-08T20:06:50.002Z,94641.00
2023-04-08T20:09:24.769Z,94634.00
2023-04-08T20:11:52.195Z,94642.00
2023-04-08T20:14:19.573Z,94639.00
2023-04-08T20:16:48.707Z,94640.00
2023-04-08T20:19:15.617Z,94643.00
2023-04-08T20:21:42.647Z,94644.00
2023-04-08T20:24:09.532Z,94638.00
2023-04-08T20:26:36.545Z,94639.00
2023-04-08T20:29:03.533Z,94637.00
2023-04-08T20:31:32.802Z,94643.00
2023-04-08T20:34:03.374Z,94637.00
2023-04-08T20:36:30.347Z,94639.00
2023-04-08T20:38:57.297Z,94642.00
2023-04-08T20:41:25.937Z,94645.00
2023-04-08T20:43:54.095Z,94650.00
2023-04-08T20:46:21.004Z,94652.00
2023-04-08T20:48:48.066Z,94642.00
2023-04-08T20:51:14.912Z,94637.00
2023-04-08T20:53:43.932Z,94636.00
2023-04-08T20:56:14.445Z,94640.00
2023-04-08T20:58:41.614Z,94645.00
2023-04-08T21:01:08.625Z,94640.00
2023-04-08T21:03:37.889Z,94645.00
2023-04-08T21:06:07.124Z,94640.00
2023-04-08T21:08:33.993Z,94641.00
2023-04-08T21:11:00.897Z,94636.00
2023-04-08T21:13:27.728Z,94633.00
2023-04-08T21:15:57.248Z,94636.00
2023-04-08T21:18:24.198Z,94636.00
2023-04-08T21:20:55.927Z,94635.00
2023-04-08T21:23:22.921Z,94637.00
2023-04-08T21:25:50.005Z,94636.00
2023-04-08T21:28:16.881Z,94622.00
2023-04-08T21:30:46.152Z,94632.00
2023-04-08T21:33:13.539Z,94628.00
2023-04-08T21:35:40.746Z,94631.00
2023-04-08T21:38:10.219Z,94637.00
2023-04-08T21:40:42.559Z,94635.00
2023-04-08T21:43:12.100Z,94638.00
2023-04-08T21:45:44.433Z,94640.00
2023-04-08T21:48:11.272Z,94635.00
2023-04-08T21:50:41.564Z,94647.00
2023-04-08T21:53:08.464Z,94647.00
2023-04-08T21:55:35.645Z,94642.00
2023-04-08T21:58:05.023Z,94649.00
2023-04-08T22:00:32.151Z,94648.00
2023-04-08T22:03:02.319Z,94643.00
2023-04-08T22:05:32.424Z,94640.00
2023-04-08T22:08:02.080Z,94647.00
2023-04-08T22:10:29.001Z,94647.00
2023-04-08T22:12:58.272Z,94647.00
2023-04-08T22:15:27.443Z,94642.00
2023-04-08T22:17:54.306Z,94638.00
2023-04-08T22:20:21.273Z,94641.00
2023-04-08T22:22:48.164Z,94622.00
2023-04-08T22:25:17.226Z,94637.00
2023-04-08T22:27:44.155Z,94634.00
2023-04-08T22:30:11.550Z,94637.00
2023-04-08T22:32:41.266Z,94634.00
2023-04-08T22:35:11.646Z,94631.00
2023-04-08T22:37:41.477Z,94631.00
2023-04-08T22:40:12.044Z,94636.00
2023-04-08T22:42:38.944Z,94632.00
2023-04-08T22:45:06.928Z,94634.00
2023-04-08T22:47:37.340Z,94642.00
2023-04-08T22:50:04.824Z,94634.00
2023-04-08T22:52:34.229Z,94638.00
2023-04-08T22:55:04.243Z,94640.00
2023-04-08T22:57:31.166Z,94628.00
2023-04-08T22:59:58.017Z,94626.00
2023-04-08T23:02:25.010Z,94616.00
2023-04-08T23:04:57.484Z,94628.00
2023-04-08T23:07:24.446Z,94625.00
2023-04-08T23:09:51.318Z,94637.00
2023-04-08T23:12:18.247Z,94634.00
2023-04-08T23:14:47.423Z,94642.00
2023-04-08T23:17:14.310Z,94631.00
2023-04-08T23:19:43.743Z,94647.00
2023-04-08T23:22:12.892Z,94632.00
2023-04-08T23:24:39.774Z,94639.00
2023-04-08T23:27:06.677Z,94644.00
2023-04-08T23:29:33.680Z,94634.00
2023-04-08T23:32:00.727Z,94640.00
2023-04-08T23:34:27.575Z,94645.00
2023-04-08T23:36:57.025Z,94646.00
2023-04-08T23:39:23.847Z,94644.00
2023-04-08T23:41:50.764Z,94643.00
2023-04-08T23:44:17.693Z,94645.00
2023-04-08T23:46:44.648Z,94641.00
2023-04-08T23:49:18.433Z,94644.00
2023-04-08T23:51:45.448Z,94644.00
2023-04-08T23:54:12.409Z,94643.00
2023-04-08T23:56:42.086Z,94645.00
2023-04-08T23:59:08.989Z,94636.00
